Hovedside
METAR-TAF:

METAR-TAF

Lufthavner :

Damaskus, Syria

breddegrad: 33-25N, lengdegrad: 036-31E, høyde over havet: 608 m

Gjeldene værobservasjon

Denne rapporten ble laget for 1 time og 5 minutter siden, klokken 15:00 UTC
Vind 20 kt fra Sørvest
Temperatur 30°C
Luftfuktighet 25%
Trykk 1010 hPa
Sikt 10 km eller mer
ingen skyer under 1500 m og ingen bygeskyer

METAR: OSDI 191500Z 23020KT CAVOK 30/08 Q1010

Tid: 19:05 (16:05 UTC)

Varsel

Denne rapporten ble laget for 6 timer og 5 minutter siden, klokken 10:00 UTC
Varsel gyldig fra 19. klokken 12 UTC til 20. klokken 18 UTC
Vind 10 kt fra Sørvest
Sikt 10 km eller mer
Få skyer i en høyde av 3000 ft
Midlertidig
fra 19. klokken 12 UTC til 19. klokken 18 UTC
Vind 15 kt fra Sørvest med vindkast opp mot 25 kt

TAF: OSDI 191000Z 1912/2018 22010KT 9999 FEW030 TEMPO 1912/1918 22015G25KT

Værobservasjoner og værvarsel for over 4000 flyplasser (METAR- og TAF-rapporter).

Tilgjengelige stasjoner er representert av de røde og gule prikkene på kartet.

Hold musepekeren over prikken for å se navnet på stasjonen.

Klikk så for å se værobservasjoner og -varsler.

For å forandre kartet kan du klikke på den grønne knappen med svart kryss for å zoome inn, på den grønne knappen med strek for å zoome ut, eller på de grønne pilene for å se tilstøtende kart.


METAR-TAF: